sensor_id;sensor_type;location;lat;lon;timestamp;P1;durP1;ratioP1;P2;durP2;ratioP2
3875;SDS011;1953;51.222;6.624;2024-03-23T00:55:25;24.60;;;6.20;;
3875;SDS011;1953;51.222;6.624;2024-03-23T01:00:08;26.43;;;6.47;;
3875;SDS011;1953;51.222;6.624;2024-03-23T01:04:51;24.30;;;6.40;;
3875;SDS011;1953;51.222;6.624;2024-03-23T01:09:34;19.97;;;6.40;;
3875;SDS011;1953;51.222;6.624;2024-03-23T01:14:20;13.93;;;4.63;;
3875;SDS011;1953;51.222;6.624;2024-03-23T01:19:03;12.43;;;3.70;;
3875;SDS011;1953;51.222;6.624;2024-03-23T01:23:46;11.63;;;3.00;;
3875;SDS011;1953;51.222;6.624;2024-03-23T01:28:29;16.23;;;4.67;;
3875;SDS011;1953;51.222;6.624;2024-03-23T01:33:12;9.43;;;3.40;;
3875;SDS011;1953;51.222;6.624;2024-03-23T01:37:55;14.27;;;3.43;;
3875;SDS011;1953;51.222;6.624;2024-03-23T01:42:38;10.73;;;3.53;;
3875;SDS011;1953;51.222;6.624;2024-03-23T01:47:20;16.53;;;4.30;;
3875;SDS011;1953;51.222;6.624;2024-03-23T01:52:05;11.03;;;3.40;;
3875;SDS011;1953;51.222;6.624;2024-03-23T01:56:48;9.40;;;2.90;;
3875;SDS011;1953;51.222;6.624;2024-03-23T02:01:31;10.23;;;2.97;;
3875;SDS011;1953;51.222;6.624;2024-03-23T02:06:13;9.20;;;2.90;;
3875;SDS011;1953;51.222;6.624;2024-03-23T02:10:57;14.20;;;3.13;;
3875;SDS011;1953;51.222;6.624;2024-03-23T02:15:40;9.00;;;2.70;;
3875;SDS011;1953;51.222;6.624;2024-03-23T02:20:23;10.90;;;3.30;;
3875;SDS011;1953;51.222;6.624;2024-03-23T02:25:07;8.27;;;2.80;;
3875;SDS011;1953;51.222;6.624;2024-03-23T02:29:49;7.77;;;2.57;;
3875;SDS011;1953;51.222;6.624;2024-03-23T02:34:32;11.60;;;3.70;;
3875;SDS011;1953;51.222;6.624;2024-03-23T02:39:14;11.20;;;2.97;;
3875;SDS011;1953;51.222;6.624;2024-03-23T02:43:58;11.63;;;3.30;;
3875;SDS011;1953;51.222;6.624;2024-03-23T02:48:40;9.67;;;2.80;;
3875;SDS011;1953;51.222;6.624;2024-03-23T02:53:23;10.17;;;3.00;;
3875;SDS011;1953;51.222;6.624;2024-03-23T02:58:06;11.23;;;3.37;;
3875;SDS011;1953;51.222;6.624;2024-03-23T03:02:49;12.37;;;3.90;;
3875;SDS011;1953;51.222;6.624;2024-03-23T03:07:32;12.10;;;4.23;;
3875;SDS011;1953;51.222;6.624;2024-03-23T03:12:14;6.30;;;3.10;;
3875;SDS011;1953;51.222;6.624;2024-03-23T03:16:57;12.13;;;3.10;;
3875;SDS011;1953;51.222;6.624;2024-03-23T03:21:41;15.80;;;3.97;;
3875;SDS011;1953;51.222;6.624;2024-03-23T03:26:23;8.50;;;3.53;;
3875;SDS011;1953;51.222;6.624;2024-03-23T03:31:06;23.10;;;3.73;;
3875;SDS011;1953;51.222;6.624;2024-03-23T03:35:48;15.93;;;4.17;;
3875;SDS011;1953;51.222;6.624;2024-03-23T03:40:33;9.40;;;3.23;;
3875;SDS011;1953;51.222;6.624;2024-03-23T03:45:17;9.23;;;3.30;;
3875;SDS011;1953;51.222;6.624;2024-03-23T03:49:59;11.57;;;3.70;;
3875;SDS011;1953;51.222;6.624;2024-03-23T03:54:42;15.50;;;3.87;;
3875;SDS011;1953;51.222;6.624;2024-03-23T03:59:26;12.57;;;3.90;;
3875;SDS011;1953;51.222;6.624;2024-03-23T04:04:08;18.43;;;3.90;;
3875;SDS011;1953;51.222;6.624;2024-03-23T04:08:51;9.13;;;3.60;;
3875;SDS011;1953;51.222;6.624;2024-03-23T04:13:33;12.63;;;4.07;;
3875;SDS011;1953;51.222;6.624;2024-03-23T04:18:17;15.37;;;3.90;;
3875;SDS011;1953;51.222;6.624;2024-03-23T04:23:00;15.03;;;4.67;;
3875;SDS011;1953;51.222;6.624;2024-03-23T04:27:42;16.00;;;4.10;;
3875;SDS011;1953;51.222;6.624;2024-03-23T04:32:25;13.53;;;4.87;;
3875;SDS011;1953;51.222;6.624;2024-03-23T04:37:09;15.87;;;5.17;;
3875;SDS011;1953;51.222;6.624;2024-03-23T04:41:52;12.90;;;5.90;;
3875;SDS011;1953;51.222;6.624;2024-03-23T04:46:34;16.97;;;5.00;;
3875;SDS011;1953;51.222;6.624;2024-03-23T04:51:20;15.60;;;5.23;;
3875;SDS011;1953;51.222;6.624;2024-03-23T04:56:05;19.43;;;5.30;;
3875;SDS011;1953;51.222;6.624;2024-03-23T05:00:47;15.53;;;5.60;;
3875;SDS011;1953;51.222;6.624;2024-03-23T05:05:30;17.40;;;6.00;;
3875;SDS011;1953;51.222;6.624;2024-03-23T05:10:13;14.03;;;5.00;;
3875;SDS011;1953;51.222;6.624;2024-03-23T05:14:57;13.53;;;4.57;;
3875;SDS011;1953;51.222;6.624;2024-03-23T05:19:40;16.33;;;5.67;;
3875;SDS011;1953;51.222;6.624;2024-03-23T05:24:22;19.30;;;5.73;;
3875;SDS011;1953;51.222;6.624;2024-03-23T05:29:05;14.43;;;5.70;;
3875;SDS011;1953;51.222;6.624;2024-03-23T05:33:53;12.00;;;5.23;;
3875;SDS011;1953;51.222;6.624;2024-03-23T05:38:35;16.47;;;6.57;;
3875;SDS011;1953;51.222;6.624;2024-03-23T05:43:18;13.43;;;6.43;;
3875;SDS011;1953;51.222;6.624;2024-03-23T05:48:00;15.80;;;6.20;;
3875;SDS011;1953;51.222;6.624;2024-03-23T05:52:44;16.97;;;7.17;;
3875;SDS011;1953;51.222;6.624;2024-03-23T05:57:27;17.30;;;7.13;;
3875;SDS011;1953;51.222;6.624;2024-03-23T06:02:09;18.30;;;7.17;;
3875;SDS011;1953;51.222;6.624;2024-03-23T06:06:52;14.50;;;6.13;;
3875;SDS011;1953;51.222;6.624;2024-03-23T06:11:36;19.57;;;4.70;;
3875;SDS011;1953;51.222;6.624;2024-03-23T06:16:19;15.93;;;5.80;;
3875;SDS011;1953;51.222;6.624;2024-03-23T06:21:04;20.83;;;7.50;;
3875;SDS011;1953;51.222;6.624;2024-03-23T06:25:46;20.50;;;7.10;;
3875;SDS011;1953;51.222;6.624;2024-03-23T06:30:32;19.37;;;7.30;;
3875;SDS011;1953;51.222;6.624;2024-03-23T06:35:14;21.63;;;7.53;;
3875;SDS011;1953;51.222;6.624;2024-03-23T06:39:57;23.40;;;8.90;;
3875;SDS011;1953;51.222;6.624;2024-03-23T06:44:39;26.50;;;9.77;;
3875;SDS011;1953;51.222;6.624;2024-03-23T06:49:23;21.13;;;8.03;;
3875;SDS011;1953;51.222;6.624;2024-03-23T06:54:07;27.52;;;10.38;;
3875;SDS011;1953;51.222;6.624;2024-03-23T06:58:49;16.47;;;7.73;;
3875;SDS011;1953;51.222;6.624;2024-03-23T07:03:32;25.43;;;9.50;;
3875;SDS011;1953;51.222;6.624;2024-03-23T07:08:16;22.10;;;8.73;;
3875;SDS011;1953;51.222;6.624;2024-03-23T07:13:02;13.50;;;4.37;;
3875;SDS011;1953;51.222;6.624;2024-03-23T07:17:46;23.00;;;7.70;;
3875;SDS011;1953;51.222;6.624;2024-03-23T07:22:29;18.77;;;6.07;;
3875;SDS011;1953;51.222;6.624;2024-03-23T07:27:13;10.37;;;4.90;;
3875;SDS011;1953;51.222;6.624;2024-03-23T07:31:56;18.90;;;7.60;;
3875;SDS011;1953;51.222;6.624;2024-03-23T07:36:38;21.93;;;7.87;;
3875;SDS011;1953;51.222;6.624;2024-03-23T07:41:21;11.97;;;5.27;;
3875;SDS011;1953;51.222;6.624;2024-03-23T07:46:05;26.67;;;8.83;;
3875;SDS011;1953;51.222;6.624;2024-03-23T07:50:55;15.90;;;7.47;;
3875;SDS011;1953;51.222;6.624;2024-03-23T07:55:41;24.60;;;8.20;;
3875;SDS011;1953;51.222;6.624;2024-03-23T08:00:24;15.10;;;7.63;;
3875;SDS011;1953;51.222;6.624;2024-03-23T08:05:08;22.73;;;8.17;;
3875;SDS011;1953;51.222;6.624;2024-03-23T08:09:51;19.07;;;6.70;;
3875;SDS011;1953;51.222;6.624;2024-03-23T08:14:34;16.20;;;6.20;;
3875;SDS011;1953;51.222;6.624;2024-03-23T08:19:16;17.70;;;6.40;;
3875;SDS011;1953;51.222;6.624;2024-03-23T08:24:00;12.60;;;5.10;;
3875;SDS011;1953;51.222;6.624;2024-03-23T08:28:42;15.33;;;5.30;;
3875;SDS011;1953;51.222;6.624;2024-03-23T08:33:25;21.73;;;5.83;;
3875;SDS011;1953;51.222;6.624;2024-03-23T08:38:08;12.63;;;3.47;;
3875;SDS011;1953;51.222;6.624;2024-03-23T08:42:52;11.37;;;4.10;;
3875;SDS011;1953;51.222;6.624;2024-03-23T08:47:34;19.73;;;5.43;;
3875;SDS011;1953;51.222;6.624;2024-03-23T08:52:17;8.57;;;4.00;;
3875;SDS011;1953;51.222;6.624;2024-03-23T08:57:00;11.80;;;4.60;;
3875;SDS011;1953;51.222;6.624;2024-03-23T09:01:44;14.70;;;5.20;;
3875;SDS011;1953;51.222;6.624;2024-03-23T09:06:26;29.07;;;5.03;;
3875;SDS011;1953;51.222;6.624;2024-03-23T09:11:10;18.23;;;6.70;;
3875;SDS011;1953;51.222;6.624;2024-03-23T09:15:53;17.30;;;7.00;;
3875;SDS011;1953;51.222;6.624;2024-03-23T09:20:38;18.03;;;8.23;;
3875;SDS011;1953;51.222;6.624;2024-03-23T09:25:21;15.27;;;6.47;;
3875;SDS011;1953;51.222;6.624;2024-03-23T09:30:03;12.00;;;7.50;;
3875;SDS011;1953;51.222;6.624;2024-03-23T09:34:47;16.20;;;7.10;;
3875;SDS011;1953;51.222;6.624;2024-03-23T09:39:31;13.40;;;6.20;;
3875;SDS011;1953;51.222;6.624;2024-03-23T09:44:14;18.23;;;6.83;;
3875;SDS011;1953;51.222;6.624;2024-03-23T09:48:56;12.60;;;5.60;;
3875;SDS011;1953;51.222;6.624;2024-03-23T09:53:39;13.97;;;5.10;;
3875;SDS011;1953;51.222;6.624;2024-03-23T09:58:23;11.13;;;5.77;;
3875;SDS011;1953;51.222;6.624;2024-03-23T10:03:06;9.77;;;3.70;;
3875;SDS011;1953;51.222;6.624;2024-03-23T10:07:49;10.93;;;5.37;;
3875;SDS011;1953;51.222;6.624;2024-03-23T10:12:32;11.07;;;5.30;;
3875;SDS011;1953;51.222;6.624;2024-03-23T10:17:16;5.63;;;2.80;;
3875;SDS011;1953;51.222;6.624;2024-03-23T10:22:00;8.47;;;3.90;;
3875;SDS011;1953;51.222;6.624;2024-03-23T10:26:42;5.53;;;2.83;;
3875;SDS011;1953;51.222;6.624;2024-03-23T10:31:25;11.90;;;3.53;;
3875;SDS011;1953;51.222;6.624;2024-03-23T10:36:09;9.50;;;4.00;;
3875;SDS011;1953;51.222;6.624;2024-03-23T10:40:51;6.10;;;2.63;;
3875;SDS011;1953;51.222;6.624;2024-03-23T10:45:35;8.40;;;4.23;;
3875;SDS011;1953;51.222;6.624;2024-03-23T10:50:18;4.57;;;1.73;;
3875;SDS011;1953;51.222;6.624;2024-03-23T10:55:02;4.60;;;2.03;;
3875;SDS011;1953;51.222;6.624;2024-03-23T10:59:48;3.00;;;1.60;;
3875;SDS011;1953;51.222;6.624;2024-03-23T11:04:31;5.40;;;2.63;;
3875;SDS011;1953;51.222;6.624;2024-03-23T11:14:23;4.90;;;2.07;;
3875;SDS011;1953;51.222;6.624;2024-03-23T11:24:17;6.37;;;3.07;;
3875;SDS011;1953;51.222;6.624;2024-03-23T11:29:08;6.03;;;3.27;;
3875;SDS011;1953;51.222;6.624;2024-03-23T11:34:01;6.03;;;3.03;;
3875;SDS011;1953;51.222;6.624;2024-03-23T11:38:45;8.10;;;3.80;;
3875;SDS011;1953;51.222;6.624;2024-03-23T11:43:28;2.70;;;1.60;;
3875;SDS011;1953;51.222;6.624;2024-03-23T11:48:11;2.87;;;1.10;;
3875;SDS011;1953;51.222;6.624;2024-03-23T11:53:07;2.03;;;1.10;;
3875;SDS011;1953;51.222;6.624;2024-03-23T11:57:50;3.37;;;1.30;;
3875;SDS011;1953;51.222;6.624;2024-03-23T12:02:33;3.90;;;1.53;;
3875;SDS011;1953;51.222;6.624;2024-03-23T12:07:16;5.43;;;2.90;;
3875;SDS011;1953;51.222;6.624;2024-03-23T12:12:06;8.07;;;3.40;;
3875;SDS011;1953;51.222;6.624;2024-03-23T12:16:50;12.43;;;3.57;;
3875;SDS011;1953;51.222;6.624;2024-03-23T12:23:10;5.67;;;3.40;;
3875;SDS011;1953;51.222;6.624;2024-03-23T12:27:53;7.83;;;2.83;;
3875;SDS011;1953;51.222;6.624;2024-03-23T12:32:36;4.90;;;2.50;;
3875;SDS011;1953;51.222;6.624;2024-03-23T12:37:18;6.00;;;2.60;;
3875;SDS011;1953;51.222;6.624;2024-03-23T12:42:02;3.07;;;1.63;;
3875;SDS011;1953;51.222;6.624;2024-03-23T12:46:45;4.30;;;1.80;;
3875;SDS011;1953;51.222;6.624;2024-03-23T12:51:28;3.27;;;1.80;;
3875;SDS011;1953;51.222;6.624;2024-03-23T12:56:11;4.30;;;1.70;;
3875;SDS011;1953;51.222;6.624;2024-03-23T13:00:55;4.63;;;1.70;;
3875;SDS011;1953;51.222;6.624;2024-03-23T13:05:40;3.70;;;2.00;;
3875;SDS011;1953;51.222;6.624;2024-03-23T13:10:22;2.90;;;1.40;;
3875;SDS011;1953;51.222;6.624;2024-03-23T13:15:05;5.40;;;1.60;;
3875;SDS011;1953;51.222;6.624;2024-03-23T13:19:49;4.50;;;1.80;;
3875;SDS011;1953;51.222;6.624;2024-03-23T13:24:32;8.87;;;1.83;;
3875;SDS011;1953;51.222;6.624;2024-03-23T13:29:14;3.70;;;1.67;;
3875;SDS011;1953;51.222;6.624;2024-03-23T13:33:57;4.40;;;1.77;;
3875;SDS011;1953;51.222;6.624;2024-03-23T13:38:41;5.47;;;2.03;;
3875;SDS011;1953;51.222;6.624;2024-03-23T13:43:24;5.93;;;2.23;;
3875;SDS011;1953;51.222;6.624;2024-03-23T13:48:08;8.03;;;3.03;;
3875;SDS011;1953;51.222;6.624;2024-03-23T13:52:51;6.50;;;2.83;;
3875;SDS011;1953;51.222;6.624;2024-03-23T13:57:36;7.37;;;2.90;;
3875;SDS011;1953;51.222;6.624;2024-03-23T14:02:19;5.00;;;2.80;;
3875;SDS011;1953;51.222;6.624;2024-03-23T14:07:02;8.33;;;2.33;;
3875;SDS011;1953;51.222;6.624;2024-03-23T14:11:45;5.07;;;2.50;;
3875;SDS011;1953;51.222;6.624;2024-03-23T14:16:29;5.10;;;2.70;;
3875;SDS011;1953;51.222;6.624;2024-03-23T14:21:11;3.60;;;1.90;;
3875;SDS011;1953;51.222;6.624;2024-03-23T14:25:54;3.60;;;2.00;;
3875;SDS011;1953;51.222;6.624;2024-03-23T14:30:37;5.07;;;2.73;;
3875;SDS011;1953;51.222;6.624;2024-03-23T14:35:21;3.80;;;1.90;;
3875;SDS011;1953;51.222;6.624;2024-03-23T14:40:04;5.30;;;2.47;;
3875;SDS011;1953;51.222;6.624;2024-03-23T14:44:48;6.40;;;3.17;;
3875;SDS011;1953;51.222;6.624;2024-03-23T14:49:30;4.80;;;2.77;;
3875;SDS011;1953;51.222;6.624;2024-03-23T14:54:15;7.57;;;2.70;;
3875;SDS011;1953;51.222;6.624;2024-03-23T14:58:57;6.73;;;2.73;;
3875;SDS011;1953;51.222;6.624;2024-03-23T15:03:40;7.57;;;3.33;;
3875;SDS011;1953;51.222;6.624;2024-03-23T15:08:23;3.13;;;1.87;;
3875;SDS011;1953;51.222;6.624;2024-03-23T15:13:09;4.37;;;1.83;;
3875;SDS011;1953;51.222;6.624;2024-03-23T15:17:53;5.93;;;1.90;;
3875;SDS011;1953;51.222;6.624;2024-03-23T15:22:36;5.97;;;2.53;;
3875;SDS011;1953;51.222;6.624;2024-03-23T15:27:19;4.40;;;1.80;;
3875;SDS011;1953;51.222;6.624;2024-03-23T15:32:03;3.70;;;1.87;;
3875;SDS011;1953;51.222;6.624;2024-03-23T15:36:46;5.47;;;2.63;;
3875;SDS011;1953;51.222;6.624;2024-03-23T15:41:30;11.20;;;2.70;;
3875;SDS011;1953;51.222;6.624;2024-03-23T15:46:13;9.57;;;3.33;;
3875;SDS011;1953;51.222;6.624;2024-03-23T15:50:58;11.33;;;4.80;;
3875;SDS011;1953;51.222;6.624;2024-03-23T15:55:41;6.30;;;2.87;;
3875;SDS011;1953;51.222;6.624;2024-03-23T16:00:24;7.03;;;3.40;;
3875;SDS011;1953;51.222;6.624;2024-03-23T16:05:06;6.37;;;2.30;;
3875;SDS011;1953;51.222;6.624;2024-03-23T16:09:53;3.73;;;2.10;;
3875;SDS011;1953;51.222;6.624;2024-03-23T16:14:37;6.93;;;2.37;;
3875;SDS011;1953;51.222;6.624;2024-03-23T16:19:19;3.83;;;1.90;;
3875;SDS011;1953;51.222;6.624;2024-03-23T16:24:03;4.07;;;2.00;;
3875;SDS011;1953;51.222;6.624;2024-03-23T16:28:47;5.37;;;2.57;;
3875;SDS011;1953;51.222;6.624;2024-03-23T16:33:30;3.57;;;2.27;;
3875;SDS011;1953;51.222;6.624;2024-03-23T16:38:13;3.10;;;1.90;;
3875;SDS011;1953;51.222;6.624;2024-03-23T16:42:55;4.53;;;2.60;;
3875;SDS011;1953;51.222;6.624;2024-03-23T16:47:39;3.00;;;1.60;;
3875;SDS011;1953;51.222;6.624;2024-03-23T16:52:22;3.90;;;1.90;;
3875;SDS011;1953;51.222;6.624;2024-03-23T16:57:04;4.63;;;1.90;;
3875;SDS011;1953;51.222;6.624;2024-03-23T17:01:47;5.77;;;2.20;;
3875;SDS011;1953;51.222;6.624;2024-03-23T17:06:31;6.37;;;2.03;;
3875;SDS011;1953;51.222;6.624;2024-03-23T17:11:13;3.77;;;1.97;;
3875;SDS011;1953;51.222;6.624;2024-03-23T17:15:57;3.93;;;2.20;;
3875;SDS011;1953;51.222;6.624;2024-03-23T17:20:41;8.23;;;2.70;;
3875;SDS011;1953;51.222;6.624;2024-03-23T17:25:25;13.27;;;2.70;;
3875;SDS011;1953;51.222;6.624;2024-03-23T17:30:08;7.80;;;4.43;;
3875;SDS011;1953;51.222;6.624;2024-03-23T17:34:51;6.37;;;2.13;;
3875;SDS011;1953;51.222;6.624;2024-03-23T17:39:33;6.53;;;2.80;;
3875;SDS011;1953;51.222;6.624;2024-03-23T17:44:17;8.27;;;4.00;;
3875;SDS011;1953;51.222;6.624;2024-03-23T17:49:01;6.90;;;3.57;;
3875;SDS011;1953;51.222;6.624;2024-03-23T17:53:44;8.37;;;3.23;;
3875;SDS011;1953;51.222;6.624;2024-03-23T17:58:26;6.03;;;3.40;;
3875;SDS011;1953;51.222;6.624;2024-03-23T18:03:10;7.53;;;4.30;;
3875;SDS011;1953;51.222;6.624;2024-03-23T18:07:53;9.57;;;6.00;;
3875;SDS011;1953;51.222;6.624;2024-03-23T18:12:35;8.50;;;2.93;;
3875;SDS011;1953;51.222;6.624;2024-03-23T18:17:18;8.70;;;2.40;;
3875;SDS011;1953;51.222;6.624;2024-03-23T18:22:02;4.90;;;2.50;;
3875;SDS011;1953;51.222;6.624;2024-03-23T18:26:44;3.50;;;2.27;;
3875;SDS011;1953;51.222;6.624;2024-03-23T18:31:27;5.43;;;2.77;;
3875;SDS011;1953;51.222;6.624;2024-03-23T18:36:09;7.10;;;2.40;;
3875;SDS011;1953;51.222;6.624;2024-03-23T18:40:53;5.20;;;2.93;;
3875;SDS011;1953;51.222;6.624;2024-03-23T18:45:36;4.77;;;2.80;;
3875;SDS011;1953;51.222;6.624;2024-03-23T18:50:18;5.30;;;2.67;;
3875;SDS011;1953;51.222;6.624;2024-03-23T18:55:01;9.37;;;2.60;;
3875;SDS011;1953;51.222;6.624;2024-03-23T18:59:45;6.83;;;3.80;;
3875;SDS011;1953;51.222;6.624;2024-03-23T19:04:27;7.10;;;2.97;;
3875;SDS011;1953;51.222;6.624;2024-03-23T19:09:10;5.63;;;3.00;;
3875;SDS011;1953;51.222;6.624;2024-03-23T19:13:53;7.40;;;4.30;;
3875;SDS011;1953;51.222;6.624;2024-03-23T19:18:37;32.00;;;16.83;;
3875;SDS011;1953;51.222;6.624;2024-03-23T19:23:20;12.83;;;5.80;;
3875;SDS011;1953;51.222;6.624;2024-03-23T19:28:03;9.00;;;3.20;;
3875;SDS011;1953;51.222;6.624;2024-03-23T19:32:46;7.07;;;4.53;;
3875;SDS011;1953;51.222;6.624;2024-03-23T19:37:30;7.27;;;4.07;;
3875;SDS011;1953;51.222;6.624;2024-03-23T19:42:12;8.50;;;3.50;;
3875;SDS011;1953;51.222;6.624;2024-03-23T19:46:55;8.10;;;4.60;;
3875;SDS011;1953;51.222;6.624;2024-03-23T19:51:38;10.53;;;5.80;;
3875;SDS011;1953;51.222;6.624;2024-03-23T19:56:21;10.73;;;5.87;;
3875;SDS011;1953;51.222;6.624;2024-03-23T20:01:06;10.63;;;6.30;;
3875;SDS011;1953;51.222;6.624;2024-03-23T20:05:58;10.40;;;5.80;;
3875;SDS011;1953;51.222;6.624;2024-03-23T20:10:45;12.70;;;5.60;;
3875;SDS011;1953;51.222;6.624;2024-03-23T20:15:30;10.10;;;6.07;;
3875;SDS011;1953;51.222;6.624;2024-03-23T20:20:12;14.10;;;7.10;;
3875;SDS011;1953;51.222;6.624;2024-03-23T20:24:55;13.77;;;5.97;;
3875;SDS011;1953;51.222;6.624;2024-03-23T20:29:38;11.67;;;5.50;;
3875;SDS011;1953;51.222;6.624;2024-03-23T20:34:21;9.30;;;5.50;;
3875;SDS011;1953;51.222;6.624;2024-03-23T20:39:04;9.50;;;5.90;;
3875;SDS011;1953;51.222;6.624;2024-03-23T20:43:46;11.20;;;6.90;;
3875;SDS011;1953;51.222;6.624;2024-03-23T20:48:29;13.90;;;6.53;;
3875;SDS011;1953;51.222;6.624;2024-03-23T20:53:15;13.33;;;5.80;;
3875;SDS011;1953;51.222;6.624;2024-03-23T20:57:57;11.77;;;5.50;;
3875;SDS011;1953;51.222;6.624;2024-03-23T21:02:40;8.80;;;5.20;;
3875;SDS011;1953;51.222;6.624;2024-03-23T21:07:22;11.30;;;4.37;;
3875;SDS011;1953;51.222;6.624;2024-03-23T21:12:07;10.50;;;4.83;;
3875;SDS011;1953;51.222;6.624;2024-03-23T21:16:49;10.47;;;4.30;;
3875;SDS011;1953;51.222;6.624;2024-03-23T21:21:32;9.23;;;4.80;;
3875;SDS011;1953;51.222;6.624;2024-03-23T21:26:14;11.23;;;4.70;;
3875;SDS011;1953;51.222;6.624;2024-03-23T21:30:58;9.57;;;4.40;;
3875;SDS011;1953;51.222;6.624;2024-03-23T21:35:44;14.20;;;4.73;;
3875;SDS011;1953;51.222;6.624;2024-03-23T21:40:34;11.60;;;4.03;;
3875;SDS011;1953;51.222;6.624;2024-03-23T21:45:18;10.60;;;4.17;;
3875;SDS011;1953;51.222;6.624;2024-03-23T21:50:04;10.27;;;4.13;;
3875;SDS011;1953;51.222;6.624;2024-03-23T21:54:47;7.07;;;3.70;;
3875;SDS011;1953;51.222;6.624;2024-03-23T21:59:31;14.60;;;4.50;;
3875;SDS011;1953;51.222;6.624;2024-03-23T22:04:13;10.47;;;4.53;;
3875;SDS011;1953;51.222;6.624;2024-03-23T22:08:57;16.33;;;4.70;;
3875;SDS011;1953;51.222;6.624;2024-03-23T22:13:40;11.80;;;5.43;;
3875;SDS011;1953;51.222;6.624;2024-03-23T22:18:23;10.67;;;4.90;;
3875;SDS011;1953;51.222;6.624;2024-03-23T22:23:05;11.13;;;4.87;;
3875;SDS011;1953;51.222;6.624;2024-03-23T22:27:51;6.80;;;4.53;;
3875;SDS011;1953;51.222;6.624;2024-03-23T22:32:33;10.10;;;3.67;;
3875;SDS011;1953;51.222;6.624;2024-03-23T22:37:16;5.90;;;3.13;;
3875;SDS011;1953;51.222;6.624;2024-03-23T22:41:58;7.43;;;3.87;;
3875;SDS011;1953;51.222;6.624;2024-03-23T22:46:42;7.20;;;3.40;;
3875;SDS011;1953;51.222;6.624;2024-03-23T22:51:24;6.47;;;3.23;;
3875;SDS011;1953;51.222;6.624;2024-03-23T22:56:07;6.63;;;3.00;;
3875;SDS011;1953;51.222;6.624;2024-03-23T23:00:49;10.60;;;3.67;;
3875;SDS011;1953;51.222;6.624;2024-03-23T23:05:36;6.23;;;3.00;;
3875;SDS011;1953;51.222;6.624;2024-03-23T23:10:20;7.90;;;3.17;;
3875;SDS011;1953;51.222;6.624;2024-03-23T23:15:02;7.33;;;3.43;;
3875;SDS011;1953;51.222;6.624;2024-03-23T23:19:45;6.27;;;3.27;;
3875;SDS011;1953;51.222;6.624;2024-03-23T23:24:29;4.63;;;2.63;;
3875;SDS011;1953;51.222;6.624;2024-03-23T23:29:11;9.50;;;4.00;;
3875;SDS011;1953;51.222;6.624;2024-03-23T23:33:54;10.13;;;4.37;;
3875;SDS011;1953;51.222;6.624;2024-03-23T23:38:36;8.60;;;3.33;;
3875;SDS011;1953;51.222;6.624;2024-03-23T23:43:20;12.77;;;4.33;;
3875;SDS011;1953;51.222;6.624;2024-03-23T23:48:03;10.80;;;5.17;;
3875;SDS011;1953;51.222;6.624;2024-03-23T23:52:46;8.93;;;4.60;;
3875;SDS011;1953;51.222;6.624;2024-03-23T23:57:28;10.03;;;4.73;;
